createdAt,value
2023-02-18T00:01:11.721Z,24.51
2023-02-18T00:03:16.117Z,24.48
2023-02-18T00:05:20.829Z,24.43
2023-02-18T00:07:25.180Z,24.43
2023-02-18T00:09:29.538Z,24.4
2023-02-18T00:11:33.901Z,24.4
2023-02-18T00:13:38.250Z,24.36
2023-02-18T00:15:42.662Z,24.35
2023-02-18T00:17:47.198Z,24.36
2023-02-18T00:19:51.527Z,24.32
2023-02-18T00:21:55.849Z,24.29
2023-02-18T00:24:00.179Z,24.28
2023-02-18T00:26:04.502Z,24.23
2023-02-18T00:28:09.884Z,24.19
2023-02-18T00:30:14.214Z,24.15
2023-02-18T00:32:18.771Z,24.16
2023-02-18T00:34:23.225Z,24.17
2023-02-18T00:36:27.541Z,24.15
2023-02-18T00:38:31.883Z,24.14
2023-02-18T00:40:36.211Z,24.13
2023-02-18T00:42:40.550Z,24.1
2023-02-18T00:44:45.034Z,24.09
2023-02-18T00:46:49.370Z,24.06
2023-02-18T00:48:53.978Z,24.07
2023-02-18T00:50:58.364Z,24.06
2023-02-18T00:53:02.824Z,24.07
2023-02-18T00:55:07.158Z,24.06
2023-02-18T00:57:11.525Z,24.04
2023-02-18T00:59:15.811Z,24.01
2023-02-18T01:01:20.201Z,23.98
2023-02-18T01:03:24.659Z,23.99
2023-02-18T01:05:28.980Z,23.97
2023-02-18T01:07:33.280Z,23.96
2023-02-18T01:09:37.584Z,23.98
2023-02-18T01:11:41.936Z,23.97
2023-02-18T01:13:46.229Z,23.96
2023-02-18T01:15:50.732Z,23.93
2023-02-18T01:17:55.223Z,23.93
2023-02-18T01:19:59.562Z,23.89
2023-02-18T01:22:03.901Z,23.9
2023-02-18T01:24:08.205Z,23.9
2023-02-18T01:26:12.595Z,23.89
2023-02-18T01:28:16.908Z,23.91
2023-02-18T01:30:21.348Z,23.9
2023-02-18T01:32:25.916Z,23.91
2023-02-18T01:34:30.354Z,23.91
2023-02-18T01:36:34.679Z,23.88
2023-02-18T01:38:39.033Z,23.84
2023-02-18T01:40:43.467Z,23.84
2023-02-18T01:42:47.794Z,23.84
2023-02-18T01:44:52.248Z,23.86
2023-02-18T01:46:56.625Z,23.85
2023-02-18T01:49:01.189Z,23.82
2023-02-18T01:51:05.505Z,23.79
2023-02-18T01:53:09.837Z,23.77
2023-02-18T01:55:14.226Z,23.76
2023-02-18T01:57:18.660Z,23.77
2023-02-18T01:59:22.992Z,23.75
2023-02-18T02:01:27.331Z,23.74
2023-02-18T02:03:31.677Z,23.74
2023-02-18T02:05:36.016Z,23.75
2023-02-18T02:07:40.361Z,23.72
2023-02-18T02:09:44.711Z,23.72
2023-02-18T02:11:49.169Z,23.69
2023-02-18T02:13:53.509Z,23.69
2023-02-18T02:15:57.886Z,23.68
2023-02-18T02:18:02.339Z,23.62
2023-02-18T02:20:06.711Z,23.65
2023-02-18T02:22:11.069Z,23.66
2023-02-18T02:24:15.463Z,23.59
2023-02-18T02:26:19.828Z,23.58
2023-02-18T02:28:24.206Z,23.58
2023-02-18T02:30:28.636Z,23.55
2023-02-18T02:32:33.161Z,23.6
2023-02-18T02:34:37.547Z,23.58
2023-02-18T02:36:41.880Z,23.61
2023-02-18T02:38:46.189Z,23.61
2023-02-18T02:40:50.528Z,23.61
2023-02-18T02:42:55.008Z,23.65
2023-02-18T02:44:59.371Z,23.63
2023-02-18T02:47:03.719Z,23.62
2023-02-18T02:49:08.436Z,23.59
2023-02-18T02:51:12.822Z,23.53
2023-02-18T02:53:17.140Z,23.5
2023-02-18T02:55:21.416Z,23.49
2023-02-18T02:57:26.044Z,23.47
2023-02-18T02:59:30.405Z,23.44
2023-02-18T03:01:34.728Z,23.43
2023-02-18T03:03:39.238Z,23.4
2023-02-18T03:05:43.769Z,23.36
2023-02-18T03:07:48.185Z,23.35
2023-02-18T03:09:52.585Z,23.34
2023-02-18T03:11:56.982Z,23.34
2023-02-18T03:14:01.385Z,23.32
2023-02-18T03:16:06.090Z,23.3
2023-02-18T03:18:11.796Z,23.25
2023-02-18T03:20:16.175Z,23.27
2023-02-18T03:22:20.564Z,23.24
2023-02-18T03:24:25.018Z,23.24
2023-02-18T03:26:29.409Z,23.2
2023-02-18T03:28:33.863Z,23.21
2023-02-18T03:30:38.229Z,23.16
2023-02-18T03:32:42.634Z,23.16
2023-02-18T03:34:46.986Z,23.15
2023-02-18T03:36:51.389Z,23.13
2023-02-18T03:38:55.846Z,23.11
2023-02-18T03:41:00.266Z,23.1
2023-02-18T03:43:04.684Z,23.06
2023-02-18T03:45:09.121Z,23.03
2023-02-18T03:47:13.540Z,23.03
2023-02-18T03:49:17.941Z,23.05
2023-02-18T03:51:22.351Z,23.05
2023-02-18T03:53:26.737Z,22.99
2023-02-18T03:55:31.133Z,22.96
2023-02-18T03:57:35.584Z,22.93
2023-02-18T03:59:39.965Z,22.94
2023-02-18T04:01:44.374Z,22.91
2023-02-18T04:03:48.836Z,22.92
2023-02-18T04:05:53.255Z,22.93
2023-02-18T04:07:58.040Z,22.88
2023-02-18T04:10:02.868Z,22.83
2023-02-18T04:12:07.224Z,22.78
2023-02-18T04:14:11.643Z,22.8
2023-02-18T04:16:16.135Z,22.8
2023-02-18T04:18:20.725Z,22.78
2023-02-18T04:20:25.142Z,22.79
2023-02-18T04:22:29.942Z,22.81
2023-02-18T04:24:34.336Z,22.82
2023-02-18T04:26:38.757Z,22.78
2023-02-18T04:28:43.479Z,22.71
2023-02-18T04:30:48.077Z,22.71
2023-02-18T04:32:53.011Z,22.68
2023-02-18T04:34:57.359Z,22.7
2023-02-18T04:37:01.771Z,22.73
2023-02-18T04:39:06.152Z,22.68
2023-02-18T04:41:10.517Z,22.65
2023-02-18T04:43:14.896Z,22.65
2023-02-18T04:45:19.292Z,22.68
2023-02-18T04:47:23.679Z,22.63
2023-02-18T04:49:28.119Z,22.57
2023-02-18T04:51:32.558Z,22.52
2023-02-18T04:53:37.069Z,22.5
2023-02-18T04:55:41.519Z,22.47
2023-02-18T04:57:45.884Z,22.47
2023-02-18T04:59:50.256Z,22.45
2023-02-18T05:01:54.643Z,22.42
2023-02-18T05:03:59.039Z,22.42
2023-02-18T05:06:03.627Z,22.39
2023-02-18T05:08:08.465Z,22.4
2023-02-18T05:10:12.825Z,22.41
2023-02-18T05:12:17.196Z,22.34
2023-02-18T05:14:21.595Z,22.35
2023-02-18T05:16:26.000Z,22.33
2023-02-18T05:18:30.403Z,22.34
2023-02-18T05:20:34.761Z,22.33
2023-02-18T05:22:39.169Z,22.29
2023-02-18T05:24:43.520Z,22.28
2023-02-18T05:26:48.016Z,22.25
2023-02-18T05:28:52.405Z,22.26
2023-02-18T05:30:56.768Z,22.25
2023-02-18T05:33:01.440Z,22.22
2023-02-18T05:35:05.801Z,22.19
2023-02-18T05:37:10.136Z,22.18
2023-02-18T05:39:14.548Z,22.18
2023-02-18T05:41:18.938Z,22.18
2023-02-18T05:43:23.397Z,22.19
2023-02-18T05:45:27.743Z,22.16
2023-02-18T05:47:32.110Z,22.14
2023-02-18T05:49:36.510Z,22.13
2023-02-18T05:51:40.934Z,22.1
2023-02-18T05:53:45.319Z,22.14
2023-02-18T05:55:49.804Z,22.14
2023-02-18T05:57:54.316Z,22.11
2023-02-18T06:00:00.193Z,22.12
2023-02-18T06:02:04.806Z,22.13
2023-02-18T06:04:09.220Z,22.14
2023-02-18T06:06:13.670Z,22.12
2023-02-18T06:08:18.351Z,22.09
2023-02-18T06:10:22.770Z,22.11
2023-02-18T06:12:27.157Z,22.1
2023-02-18T06:14:31.547Z,22.08
2023-02-18T06:16:35.984Z,22.05
2023-02-18T06:18:40.388Z,22.06
2023-02-18T06:20:44.794Z,22.05
2023-02-18T06:22:49.257Z,22.01
2023-02-18T06:24:53.658Z,22.01
2023-02-18T06:26:58.052Z,22.03
2023-02-18T06:29:02.479Z,22
2023-02-18T06:31:07.015Z,22.01
2023-02-18T06:33:11.928Z,22.02
2023-02-18T06:35:16.402Z,21.99
2023-02-18T06:37:20.784Z,22.01
2023-02-18T06:39:25.181Z,22
2023-02-18T06:41:29.585Z,22.01
2023-02-18T06:43:33.966Z,21.99
2023-02-18T06:45:38.346Z,21.99
2023-02-18T06:47:42.736Z,21.97
2023-02-18T06:49:47.338Z,21.96
2023-02-18T06:51:51.809Z,21.95
2023-02-18T06:53:56.245Z,21.96
2023-02-18T06:56:00.745Z,21.96
2023-02-18T06:58:05.361Z,21.95
2023-02-18T07:00:09.804Z,21.94
2023-02-18T07:02:14.238Z,21.94
2023-02-18T07:04:18.707Z,21.91
2023-02-18T07:06:23.080Z,21.89
2023-02-18T07:08:27.500Z,21.91
2023-02-18T07:10:31.873Z,21.86
2023-02-18T07:12:36.274Z,21.9
2023-02-18T07:14:40.697Z,21.88
2023-02-18T07:16:45.143Z,21.87
2023-02-18T07:18:49.855Z,21.86
2023-02-18T07:20:54.242Z,21.85
2023-02-18T07:22:58.606Z,21.83
2023-02-18T07:25:03.138Z,21.83
2023-02-18T07:27:07.624Z,21.83
2023-02-18T07:29:12.054Z,21.84
2023-02-18T07:31:16.506Z,21.85
2023-02-18T07:33:21.271Z,21.86
2023-02-18T07:37:30.065Z,21.81
2023-02-18T07:39:34.506Z,21.88
2023-02-18T07:41:38.902Z,21.89
2023-02-18T07:43:43.271Z,21.9
2023-02-18T07:45:47.693Z,21.88
2023-02-18T07:47:52.304Z,21.88
2023-02-18T07:49:56.683Z,21.89
2023-02-18T07:52:01.112Z,21.88
2023-02-18T07:54:08.108Z,21.88
2023-02-18T07:56:12.513Z,21.86
2023-02-18T07:58:16.950Z,21.87
2023-02-18T08:00:21.343Z,21.88
2023-02-18T08:02:25.831Z,21.87
2023-02-18T08:04:30.473Z,21.86
2023-02-18T08:06:35.194Z,21.85
2023-02-18T08:08:39.586Z,21.88
2023-02-18T08:10:43.973Z,21.88
2023-02-18T08:12:48.399Z,21.89
2023-02-18T08:14:52.807Z,21.88
2023-02-18T08:16:57.261Z,21.89
2023-02-18T08:19:01.806Z,21.88
2023-02-18T08:21:06.200Z,21.85
2023-02-18T08:23:10.589Z,21.85
2023-02-18T08:25:27.611Z,21.86
2023-02-18T08:27:33.594Z,21.84
2023-02-18T08:29:38.013Z,21.81
2023-02-18T08:31:44.532Z,21.84
2023-02-18T08:33:49.488Z,21.81
2023-02-18T08:35:53.900Z,21.85
2023-02-18T08:37:58.674Z,21.88
2023-02-18T08:40:03.153Z,21.84
2023-02-18T08:42:07.591Z,21.84
2023-02-18T08:44:12.030Z,21.82
2023-02-18T08:46:22.248Z,21.83
2023-02-18T08:48:39.665Z,21.81
2023-02-18T08:50:44.031Z,21.82
2023-02-18T08:52:48.507Z,21.81
2023-02-18T08:54:52.910Z,21.81
2023-02-18T08:56:57.291Z,21.81
2023-02-18T08:59:01.747Z,21.85
2023-02-18T09:01:06.562Z,21.84
2023-02-18T09:03:12.377Z,21.84
2023-02-18T09:05:16.738Z,21.79
2023-02-18T09:07:21.231Z,21.8
2023-02-18T09:09:25.617Z,21.86
2023-02-18T09:11:30.033Z,21.86
2023-02-18T09:13:34.470Z,21.85
2023-02-18T09:15:38.955Z,21.85
2023-02-18T09:17:43.658Z,21.84
2023-02-18T09:19:48.075Z,21.89
2023-02-18T09:21:52.435Z,21.93
2023-02-18T09:23:56.993Z,22.04
2023-02-18T09:26:01.544Z,22.17
2023-02-18T09:28:05.946Z,22.27
2023-02-18T09:30:10.419Z,22.33
2023-02-18T09:32:22.593Z,22.42
2023-02-18T09:34:38.894Z,22.55
2023-02-18T09:36:43.277Z,22.7
2023-02-18T09:38:47.770Z,22.8
2023-02-18T09:40:52.192Z,22.89
2023-02-18T09:42:56.549Z,22.96
2023-02-18T09:45:01.022Z,23.03
2023-02-18T09:47:05.515Z,23.07
2023-02-18T09:49:09.998Z,23.07
2023-02-18T09:51:14.382Z,23.12
2023-02-18T09:53:18.816Z,23.12
2023-02-18T09:55:23.227Z,23.12
2023-02-18T09:57:27.718Z,23.15
2023-02-18T09:59:32.060Z,23.19
2023-02-18T10:01:36.459Z,23.22
2023-02-18T10:03:41.598Z,23.27
2023-02-18T10:05:46.033Z,23.28
2023-02-18T10:07:50.500Z,23.31
2023-02-18T10:09:55.015Z,23.31
2023-02-18T10:11:59.404Z,23.33
2023-02-18T10:14:03.816Z,23.32
2023-02-18T10:16:08.565Z,23.33
2023-02-18T10:18:14.583Z,23.33
2023-02-18T10:20:19.099Z,23.37
2023-02-18T10:22:23.525Z,23.36
2023-02-18T10:24:27.949Z,23.35
2023-02-18T10:26:32.403Z,23.36
2023-02-18T10:28:36.768Z,23.37
2023-02-18T10:30:41.231Z,23.33
2023-02-18T10:32:45.740Z,23.35
2023-02-18T10:34:50.184Z,23.37
2023-02-18T10:36:54.552Z,23.37
2023-02-18T10:38:58.993Z,23.38
2023-02-18T10:41:03.488Z,23.39
2023-02-18T10:43:07.916Z,23.38
2023-02-18T10:45:12.268Z,23.39
2023-02-18T10:47:16.653Z,23.4
2023-02-18T10:49:21.048Z,23.41
2023-02-18T10:51:25.452Z,23.42
2023-02-18T10:53:29.830Z,23.42
2023-02-18T10:55:34.275Z,23.43
2023-02-18T10:57:38.650Z,23.44
2023-02-18T10:59:43.039Z,23.46
2023-02-18T11:01:47.525Z,23.44
2023-02-18T11:03:52.080Z,23.47
2023-02-18T11:05:56.441Z,23.47
2023-02-18T11:08:00.816Z,23.48
2023-02-18T11:10:05.170Z,23.48
2023-02-18T11:12:09.502Z,23.48
2023-02-18T11:14:13.870Z,23.46
2023-02-18T11:16:18.166Z,23.47
2023-02-18T11:18:22.642Z,23.52
2023-02-18T11:20:27.015Z,23.51
2023-02-18T11:22:31.345Z,23.53
2023-02-18T11:24:35.687Z,23.52
2023-02-18T11:26:40.057Z,23.54
2023-02-18T11:28:44.416Z,23.56
2023-02-18T11:30:48.928Z,23.55
2023-02-18T11:32:53.194Z,23.57
2023-02-18T11:34:57.520Z,23.61
2023-02-18T11:37:01.878Z,23.64
2023-02-18T11:39:06.160Z,23.66
2023-02-18T11:41:10.722Z,23.68
2023-02-18T11:43:15.200Z,23.71
2023-02-18T11:45:19.650Z,23.75
2023-02-18T11:47:23.974Z,23.76
2023-02-18T11:49:28.309Z,23.76
2023-02-18T11:51:32.687Z,23.77
2023-02-18T11:53:37.028Z,23.75
2023-02-18T11:55:41.410Z,23.73
2023-02-18T11:57:45.763Z,23.76
2023-02-18T11:59:50.130Z,23.75
2023-02-18T12:01:54.615Z,23.76
2023-02-18T12:03:59.020Z,23.78
2023-02-18T12:06:03.411Z,23.82
2023-02-18T12:08:07.741Z,23.86
2023-02-18T12:10:12.103Z,23.89
2023-02-18T12:12:16.625Z,23.91
2023-02-18T12:14:20.997Z,23.81
2023-02-18T12:16:26.376Z,23.87
2023-02-18T12:18:31.038Z,23.92
2023-02-18T12:20:35.388Z,23.99
2023-02-18T12:22:39.742Z,24.06
2023-02-18T12:24:44.061Z,24.11
2023-02-18T12:26:48.444Z,24.15
2023-02-18T12:28:52.831Z,24.2
2023-02-18T12:30:57.264Z,24.21
2023-02-18T12:33:01.857Z,24.19
2023-02-18T12:35:06.200Z,24.23
2023-02-18T12:37:10.552Z,24.24
2023-02-18T12:39:14.941Z,24.26
2023-02-18T12:41:19.303Z,24.3
2023-02-18T12:43:23.722Z,24.31
2023-02-18T12:45:28.049Z,24.32
2023-02-18T12:47:32.374Z,24.36
2023-02-18T12:49:39.857Z,24.38
2023-02-18T12:51:44.248Z,24.38
2023-02-18T12:53:48.620Z,24.35
2023-02-18T12:55:52.953Z,24.39
2023-02-18T12:57:57.334Z,24.39
2023-02-18T13:00:01.698Z,24.43
2023-02-18T13:02:06.184Z,24.5
2023-02-18T13:04:10.584Z,24.52
2023-02-18T13:06:15.031Z,24.53
2023-02-18T13:08:19.405Z,24.52
2023-02-18T13:10:23.806Z,24.57
2023-02-18T13:12:28.148Z,24.56
2023-02-18T13:14:32.547Z,24.62
2023-02-18T13:16:36.981Z,24.64
2023-02-18T13:18:41.461Z,24.65
2023-02-18T13:20:45.892Z,24.7
2023-02-18T13:22:50.299Z,24.73
2023-02-18T13:24:54.794Z,24.73
2023-02-18T13:26:59.162Z,24.72
2023-02-18T13:29:03.517Z,24.7
2023-02-18T13:31:08.275Z,24.74
2023-02-18T13:33:14.136Z,24.74
2023-02-18T13:35:18.623Z,24.74
2023-02-18T13:37:23.040Z,24.71
2023-02-18T13:39:27.433Z,24.73
2023-02-18T13:41:31.964Z,24.73
2023-02-18T13:43:36.323Z,24.54
2023-02-18T13:45:40.669Z,24.72
2023-02-18T13:47:45.108Z,24.7
2023-02-18T13:49:49.764Z,24.71
2023-02-18T13:51:54.143Z,24.71
2023-02-18T13:53:58.600Z,24.51
2023-02-18T13:56:02.964Z,24.69
2023-02-18T13:58:07.358Z,24.68
2023-02-18T14:00:11.768Z,24.64
2023-02-18T14:02:16.238Z,24.62
2023-02-18T14:04:20.924Z,24.62
2023-02-18T14:06:25.336Z,24.6
2023-02-18T14:08:29.736Z,24.61
2023-02-18T14:10:34.096Z,24.6
2023-02-18T14:12:38.495Z,24.6
2023-02-18T14:14:42.858Z,24.6
2023-02-18T14:16:47.287Z,24.6
2023-02-18T14:18:51.660Z,24.57
2023-02-18T14:20:56.037Z,24.6
2023-02-18T14:23:00.395Z,24.62
2023-02-18T14:25:04.727Z,24.61
2023-02-18T14:27:09.240Z,24.64
2023-02-18T14:29:13.661Z,24.62
2023-02-18T14:31:24.093Z,24.63
2023-02-18T14:33:34.485Z,24.69
2023-02-18T14:35:38.825Z,24.68
2023-02-18T14:37:43.133Z,24.67
2023-02-18T14:39:47.422Z,24.72
2023-02-18T14:41:52.865Z,24.77
2023-02-18T14:43:59.413Z,24.83
2023-02-18T14:46:03.858Z,24.87
2023-02-18T14:48:08.424Z,24.87
2023-02-18T14:50:14.614Z,24.86
2023-02-18T14:52:19.478Z,24.85
2023-02-18T14:54:23.884Z,24.85
2023-02-18T14:56:28.279Z,24.86
2023-02-18T14:58:32.656Z,24.87
2023-02-18T15:00:37.174Z,24.86
2023-02-18T15:02:41.610Z,24.86
2023-02-18T15:04:45.976Z,24.87
2023-02-18T15:06:50.341Z,24.88
2023-02-18T15:08:54.730Z,24.92
2023-02-18T15:10:59.230Z,24.93
2023-02-18T15:13:03.579Z,24.91
2023-02-18T15:15:07.922Z,24.87
2023-02-18T15:17:12.365Z,24.88
2023-02-18T15:19:16.744Z,24.91
2023-02-18T15:21:21.324Z,24.95
2023-02-18T15:23:25.715Z,24.98
2023-02-18T15:25:30.053Z,24.98
2023-02-18T15:27:34.436Z,25.01
2023-02-18T15:29:38.857Z,25.02
2023-02-18T15:31:43.397Z,25.04
2023-02-18T15:33:47.969Z,25.04
2023-02-18T15:35:52.364Z,25.01
2023-02-18T15:37:56.911Z,25.01
2023-02-18T15:40:01.487Z,25.02
2023-02-18T15:42:06.104Z,25.06
2023-02-18T15:44:10.514Z,25.06
2023-02-18T15:46:15.076Z,25.15
2023-02-18T15:48:19.602Z,25.1
2023-02-18T15:50:24.080Z,25.15
2023-02-18T15:52:28.563Z,25.16
2023-02-18T15:54:33.088Z,25.13
2023-02-18T15:56:39.407Z,25.03
2023-02-18T15:58:43.828Z,24.94
2023-02-18T16:00:48.375Z,24.92
2023-02-18T16:02:52.956Z,24.86
2023-02-18T16:04:57.354Z,24.8
2023-02-18T16:07:01.738Z,24.74
2023-02-18T16:09:06.101Z,24.68
2023-02-18T16:11:10.755Z,24.67
2023-02-18T16:13:15.393Z,24.59
2023-02-18T16:15:19.758Z,24.55
2023-02-18T16:17:24.140Z,24.6
2023-02-18T16:19:28.539Z,24.64
2023-02-18T16:21:32.953Z,24.7
2023-02-18T16:23:37.320Z,24.64
2023-02-18T16:25:41.685Z,24.66
2023-02-18T16:27:46.674Z,24.72
2023-02-18T16:29:51.125Z,24.75
2023-02-18T16:31:55.670Z,24.82
2023-02-18T16:34:00.321Z,24.85
2023-02-18T16:36:04.687Z,24.89
2023-02-18T16:38:09.131Z,24.92
2023-02-18T16:40:13.538Z,24.93
2023-02-18T16:42:17.971Z,24.95
2023-02-18T16:44:22.311Z,24.98
2023-02-18T16:46:26.785Z,24.99
2023-02-18T16:48:31.200Z,25.02
2023-02-18T16:50:35.625Z,25.04
2023-02-18T16:52:40.068Z,25.08
2023-02-18T16:54:44.432Z,25.12
2023-02-18T16:56:48.785Z,25.13
2023-02-18T16:58:53.136Z,25.15
2023-02-18T17:00:57.590Z,25.14
2023-02-18T17:03:02.183Z,25.06
2023-02-18T17:05:11.869Z,24.89
2023-02-18T17:07:30.155Z,24.76
2023-02-18T17:09:34.497Z,24.68
2023-02-18T17:11:38.981Z,24.58
2023-02-18T17:13:43.425Z,24.52
2023-02-18T17:15:48.056Z,24.48
2023-02-18T17:17:52.443Z,24.45
2023-02-18T17:19:56.825Z,24.42
2023-02-18T17:22:01.266Z,24.39
2023-02-18T17:24:05.645Z,24.35
2023-02-18T17:26:10.292Z,24.3
2023-02-18T17:28:15.047Z,24.29
2023-02-18T17:30:19.718Z,24.33
2023-02-18T17:32:24.395Z,24.35
2023-02-18T17:34:28.786Z,24.36
2023-02-18T17:36:33.172Z,24.37
2023-02-18T17:38:37.712Z,24.35
2023-02-18T17:40:42.072Z,24.32
2023-02-18T17:42:46.474Z,24.3
2023-02-18T17:44:50.868Z,24.29
2023-02-18T17:46:55.258Z,24.28
2023-02-18T17:48:59.659Z,24.27
2023-02-18T17:51:04.087Z,24.28
2023-02-18T17:53:08.445Z,24.29
2023-02-18T17:55:12.843Z,24.32
2023-02-18T17:57:17.224Z,24.35
2023-02-18T17:59:21.563Z,24.36
2023-02-18T18:01:25.975Z,24.34
2023-02-18T18:03:30.549Z,24.34
2023-02-18T18:05:34.922Z,24.34
2023-02-18T18:07:39.338Z,24.32
2023-02-18T18:09:43.688Z,24.29
2023-02-18T18:11:48.007Z,24.28
2023-02-18T18:13:52.466Z,24.25
2023-02-18T18:15:58.021Z,24.24
2023-02-18T18:18:02.661Z,24.25
2023-02-18T18:20:07.035Z,24.24
2023-02-18T18:22:11.476Z,24.26
2023-02-18T18:24:15.902Z,24.28
2023-02-18T18:26:20.293Z,24.25
2023-02-18T18:28:24.637Z,24.27
2023-02-18T18:30:29.215Z,24.28
2023-02-18T18:32:34.013Z,24.28
2023-02-18T18:34:38.403Z,24.28
2023-02-18T18:36:42.805Z,24.27
2023-02-18T18:38:47.210Z,24.23
2023-02-18T18:40:51.740Z,24.25
2023-02-18T18:42:56.127Z,24.25
2023-02-18T19:21:50.282Z,25.3
2023-02-18T20:23:15.434Z,25.06
2023-02-18T21:27:54.771Z,26.03
2023-02-18T21:30:09.012Z,26.09
2023-02-18T22:04:41.792Z,25.99
2023-02-18T22:06:46.129Z,25.84
2023-02-18T22:08:50.538Z,25.74
2023-02-18T22:10:54.871Z,25.67
2023-02-18T22:12:59.497Z,25.6
2023-02-18T22:15:04.038Z,25.53
2023-02-18T22:17:08.566Z,25.58
2023-02-18T22:19:13.002Z,25.59
2023-02-18T22:21:18.675Z,25.59
2023-02-18T22:23:24.647Z,25.6
2023-02-18T22:25:29.049Z,25.61
2023-02-18T22:27:33.434Z,25.59
2023-02-18T22:29:37.839Z,25.6
2023-02-18T22:31:42.198Z,25.61
2023-02-18T22:33:46.969Z,25.62
2023-02-18T22:35:51.347Z,25.61
2023-02-18T22:37:55.845Z,25.52
2023-02-18T22:40:00.337Z,25.57
2023-02-18T22:42:04.691Z,25.54
2023-02-18T22:44:09.142Z,25.52
2023-02-18T22:46:13.793Z,25.55
2023-02-18T22:48:20.019Z,25.57
2023-02-18T22:50:24.581Z,25.57
2023-02-18T22:52:28.903Z,25.57
2023-02-18T22:54:33.289Z,25.58
2023-02-18T22:56:37.782Z,25.55
2023-02-18T22:58:42.457Z,25.56
2023-02-18T23:00:46.921Z,25.39
2023-02-18T23:02:51.564Z,25.2
2023-02-18T23:04:55.904Z,25.02
2023-02-18T23:07:00.354Z,24.87
2023-02-18T23:09:04.976Z,24.7
2023-02-18T23:11:09.686Z,24.57
2023-02-18T23:13:15.273Z,24.42
2023-02-18T23:15:19.679Z,24.34
2023-02-18T23:17:24.179Z,24.25
2023-02-18T23:19:28.532Z,24.19
2023-02-18T23:21:33.069Z,24.07
2023-02-18T23:23:37.444Z,24.06
2023-02-18T23:25:41.872Z,24.03
2023-02-18T23:27:46.226Z,23.95
2023-02-18T23:29:50.729Z,23.91
2023-02-18T23:31:55.166Z,23.88
2023-02-18T23:34:00.041Z,23.8
2023-02-18T23:36:04.524Z,23.81
2023-02-18T23:38:08.874Z,23.76
2023-02-18T23:40:13.318Z,23.73
2023-02-18T23:42:17.791Z,23.67
2023-02-18T23:44:22.185Z,23.69
2023-02-18T23:46:26.800Z,23.68
2023-02-18T23:48:31.194Z,23.67
2023-02-18T23:50:35.805Z,23.65
2023-02-18T23:52:40.251Z,23.64
2023-02-18T23:54:44.602Z,23.61
2023-02-18T23:56:48.959Z,23.59
2023-02-18T23:58:53.439Z,23.57
